Tenerife Car — CQCP — position and weather

sailwx.info

Track history (hours):
 
Tides and Currents Weather Stations Pressure Air Temp Water Temp Dewpoint Dewpoint Depression Visibility Wind Speed Wind Dir Waves Ship Positions

Tenerife Car

Last reported at 2017-Oct-16 22:30 UTC. Time now 2017-Oct-16 22:37 UTC.
Position N 51°24' E 003°08'.

Length 138 m; draft 5.4 m.

Type: Cargo ship. MMSI: 255805766.

Date/timePositionNaut miles runAvg speedWind from/ knotsBaromVisibWave heightAir tempDewpointWater temp
2017-Oct-16 22:30N 51°24' E 003°08'713.8
2017-Oct-16 22:00N 51°23' E 002°57'714.4
2017-Oct-16 21:30N 51°22' E 002°46'610.6
2017-Oct-16 20:59N 51°22' E 002°37'5 9.7
2017-Oct-16 20:30N 51°22' E 002°30'4 7.3
2017-Oct-16 20:01N 51°20' E 002°24'713.7
2017-Oct-16 19:31N 51°16' E 002°15'714.6
2017-Oct-16 19:01N 51°13' E 002°05'714.2
2017-Oct-16 18:31N 51°10' E 001°55'714.7
2017-Oct-16 18:01N 51°06' E 001°45'714.5
2017-Oct-16 17:31N 51°00' E 001°38'714.4
2017-Oct-16 17:00N 50°55' E 001°30'713.9
2017-Oct-16 16:30N 50°48' E 001°27'714.0
2017-Oct-16 16:00N 50°42' E 001°22'713.6
2017-Oct-16 15:30N 50°37' E 001°15'914.1
2017-Oct-16 14:54N 50°31' E 001°05'1415.4
2017-Oct-16 13:57N 50°26' E 000°44'715.4
2017-Oct-16 13:29N 50°24' E 000°33'715.2
2017-Oct-16 13:00N 50°21' E 000°22'814.9
2017-Oct-16 12:30N 50°20' E 000°11'715.0
2017-Oct-16 12:00N 50°18' W 000°01'814.9
2017-Oct-16 11:30N 50°17' W 000°13'714.7
2017-Oct-16 11:00N 50°16' W 000°24'714.5
2017-Oct-16 10:30N 50°14' W 000°35'5916.2
2017-Oct-16 06:50N 49°59' W 002°04'618.3
2017-Oct-16 06:30N 49°57' W 002°14'918.1
2017-Oct-16 06:00N 49°55' W 002°27'917.7
2017-Oct-16 05:29N 49°52' W 002°41'817.7
2017-Oct-16 05:00N 49°49' W 002°53'917.7
2017-Oct-16 04:30N 49°45' W 003°05'917.6
2017-Oct-16 04:00N 49°41' W 003°17'917.4
2017-Oct-16 03:31N 49°36' W 003°29'917.5
2017-Oct-16 03:00N 49°32' W 003°40'917.5
2017-Oct-16 02:30N 49°27' W 003°52'917.6
2017-Oct-16 02:00N 49°23' W 004°03'917.6
2017-Oct-16 01:30N 49°18' W 004°15'917.5
2017-Oct-16 01:00N 49°14' W 004°27'917.4
2017-Oct-16 00:30N 49°10' W 004°38'917.3
2017-Oct-16 00:00N 49°06' W 004°50'816.8
2017-Oct-15 23:30N 49°01' W 005°00'1016.9
2017-Oct-15 22:56N 48°56' W 005°13'816.9
2017-Oct-15 22:30N 48°52' W 005°22'1017.3
2017-Oct-15 21:57N 48°47' W 005°35'817.4
2017-Oct-15 21:28N 48°40' W 005°42'716.1
2017-Oct-15 21:00N 48°33' W 005°42'917.5
2017-Oct-15 20:30N 48°25' W 005°35'917.2
2017-Oct-15 20:00N 48°18' W 005°27'917.1
2017-Oct-15 19:31N 48°11' W 005°20'916.9
2017-Oct-15 19:00N 48°04' W 005°14'816.9
2017-Oct-15 18:30N 47°57' W 005°07'917.0
2017-Oct-15 18:00N 47°50' W 004°60'917.2
2017-Oct-15 17:31N 47°43' W 004°52'816.5
2017-Oct-15 17:00N 47°39' W 004°41'917.2
2017-Oct-15 16:30N 47°35' W 004°30'917.3
2017-Oct-15 16:00N 47°31' W 004°18'917.3
2017-Oct-15 15:30N 47°28' W 004°06'917.2
2017-Oct-15 15:00N 47°24' W 003°55'1717.5
2017-Oct-15 14:00N 47°17' W 003°32'917.3
2017-Oct-15 13:31N 47°13' W 003°20'917.2
2017-Oct-15 13:00N 47°09' W 003°09'917.3
2017-Oct-15 12:30N 47°06' W 002°57'817.1
2017-Oct-15 12:00N 47°01' W 002°46'816.0
2017-Oct-15 11:30N 47°02' W 002°34'816.4
2017-Oct-15 11:00N 47°06' W 002°24'510.7
2017-Oct-15 10:30N 47°10' W 002°18'815.3
2017-Oct-15 10:01N 47°16' W 002°11'2 3.3
2017-Oct-15 09:30N 47°17' W 002°10'0 0.0
2017-Oct-15 09:00N 47°17' W 002°10'0 0.0
2017-Oct-15 08:30N 47°17' W 002°10'0 0.0
2017-Oct-15 08:00N 47°17' W 002°10'0 0.0
2017-Oct-15 07:30N 47°17' W 002°10'0 0.0
2017-Oct-15 07:00N 47°17' W 002°10'0 0.0
2017-Oct-15 06:30N 47°17' W 002°10'0 0.0
2017-Oct-15 06:00N 47°17' W 002°10'0 0.0
2017-Oct-15 05:30N 47°17' W 002°10'0 0.0
2017-Oct-15 05:00N 47°17' W 002°10'0 0.0
2017-Oct-15 04:30N 47°17' W 002°10'0 0.0
2017-Oct-15 04:00N 47°17' W 002°10'0 0.0
2017-Oct-15 03:30N 47°17' W 002°10'0 0.0
2017-Oct-15 03:00N 47°17' W 002°10'0 0.0
2017-Oct-15 02:30N 47°17' W 002°10'0 0.0
2017-Oct-15 02:00N 47°17' W 002°10'0 0.1
2017-Oct-15 01:30N 47°17' W 002°10'4 7.8
2017-Oct-15 01:00N 47°15' W 002°14'715.0
2017-Oct-15 00:30N 47°08' W 002°20'611.5
2017-Oct-15 00:00N 47°05' W 002°26'816.0
2017-Oct-14 23:30N 47°01' W 002°37'713.0
2017-Oct-14 23:00N 46°57' W 002°45'610.8
2017-Oct-14 22:30N 46°54' W 002°51'510.9
2017-Oct-14 22:00N 46°52' W 002°59'510.5
2017-Oct-14 21:30N 46°49' W 003°05'510.9
2017-Oct-14 21:00N 46°45' W 003°10'510.5
2017-Oct-14 20:29N 46°41' W 003°16'510.4
2017-Oct-14 19:59N 46°38' W 003°23'610.6
2017-Oct-14 19:25N 46°35' W 003°29'610.8
2017-Oct-14 18:53N 46°31' W 003°36'710.9
2017-Oct-14 18:12N 46°27' W 003°45'510.7
2017-Oct-14 17:44N 46°24' W 003°51'410.5
2017-Oct-14 17:23N 46°22' W 003°55'510.5
2017-Oct-14 16:56N 46°19' W 004°01'2610.2
2017-Oct-14 14:21N 46°03' W 004°31'810.2
2017-Oct-14 13:32N 45°58' W 004°41'010.0
2017-Oct-14 13:30N 45°58' W 004°41'27214.3
2017-Oct-13 18:25N 43°13' W 009°46'616.1
2017-Oct-13 18:00N 43°07' W 009°48'816.4
2017-Oct-13 17:30N 42°59' W 009°47'816.4
2017-Oct-13 17:01N 42°51' W 009°47'83 5.4
2017-Oct-13 01:38N 41°32' W 009°11'617.3
2017-Oct-13 01:16N 41°26' W 009°12'11617.5
2017-Oct-12 18:38N 39°32' W 009°45'317.9
2017-Oct-12 18:27N 39°29' W 009°46'817.6
2017-Oct-12 18:00N 39°21' W 009°47'917.4
2017-Oct-12 17:31N 39°13' W 009°48'917.3
2017-Oct-12 17:00N 39°04' W 009°49'917.7
2017-Oct-12 16:31N 38°55' W 009°51'917.9
2017-Oct-12 16:00N 38°46' W 009°51'917.5
2017-Oct-12 15:30N 38°38' W 009°49'917.6
2017-Oct-12 15:00N 38°29' W 009°47'1017.7
2017-Oct-12 14:26N 38°19' W 009°44'817.7
2017-Oct-12 14:00N 38°12' W 009°41'1117.9
2017-Oct-12 13:24N 38°01' W 009°38'818.1
2017-Oct-12 12:59N 37°54' W 009°36'1817.6
2017-Oct-12 11:56N 37°36' W 009°33'2317.5
2017-Oct-12 10:37N 37°14' W 009°25'517.7
2017-Oct-12 10:19N 37°08' W 009°23'1717.2
2017-Oct-12 09:21N 36°52' W 009°18'616.9
2017-Oct-12 09:00N 36°48' W 009°14'917.5
2017-Oct-12 08:30N 36°44' W 009°04'918.0
2017-Oct-12 08:00N 36°41' W 008°53'1617.9
2017-Oct-12 07:05N 36°35' W 008°34'617.8
2017-Oct-12 06:46N 36°33' W 008°27'617.7
2017-Oct-12 06:26N 36°31' W 008°21'717.3
2017-Oct-12 06:01N 36°29' W 008°12'917.7
2017-Oct-12 05:30N 36°26' W 008°02'917.7
2017-Oct-12 05:00N 36°22' W 007°51'917.5
2017-Oct-12 04:30N 36°20' W 007°41'1117.6
2017-Oct-12 03:53N 36°17' W 007°28'5617.8
2017-Oct-12 00:46N 35°59' W 006°23'1116.8
2017-Oct-12 00:05N 35°57' W 006°08'216.4
2017-Oct-11 23:57N 35°58' W 006°06'917.2
2017-Oct-11 23:27N 35°58' W 005°55'817.2
2017-Oct-11 23:01N 35°58' W 005°46'816.3
2017-Oct-11 22:31N 35°58' W 005°36'611.3
2017-Oct-11 21:56N 35°54' W 005°30'0 0.0
2017-Oct-10 23:59N 35°53' W 005°30'0 0.7
2017-Oct-10 23:27N 35°54' W 005°30'3212.4
2017-Oct-10 20:55N 35°49' W 006°08'410.6
2017-Oct-10 20:30N 35°48' W 006°14'510.3
2017-Oct-10 20:00N 35°46' W 006°19'5 9.9
2017-Oct-10 19:29N 35°44' W 006°25'5 9.5
2017-Oct-10 19:00N 35°43' W 006°31'5 9.0
2017-Oct-10 18:29N 35°41' W 006°36'5 9.9
2017-Oct-10 18:00N 35°39' W 006°41'510.6
2017-Oct-10 17:30N 35°36' W 006°47'4 6.7
2017-Oct-10 16:54N 35°33' W 006°51'1 1.0
2017-Oct-10 15:54N 35°33' W 006°49'0 1.0
2017-Oct-10 15:30N 35°33' W 006°49'1 1.2
2017-Oct-10 14:57N 35°33' W 006°48'2 1.5
2017-Oct-10 13:48N 35°33' W 006°46'0 1.7
2017-Oct-10 13:30N 35°33' W 006°46'3 1.1
2017-Oct-10 10:48N 35°33' W 006°42'0 0.5
2017-Oct-10 10:24N 35°33' W 006°42'0 0.7
2017-Oct-10 09:54N 35°32' W 006°41'0 0.9
2017-Oct-10 09:27N 35°32' W 006°41'0 1.0
2017-Oct-10 09:00N 35°32' W 006°40'1 1.0
2017-Oct-10 07:42N 35°31' W 006°39'1 1.3
2017-Oct-10 07:12N 35°31' W 006°38'0 1.3
2017-Oct-10 07:00N 35°31' W 006°38'1 1.2
2017-Oct-10 06:30N 35°30' W 006°38'510.0
2017-Oct-10 06:00N 35°27' W 006°43'510.3
2017-Oct-10 05:30N 35°23' W 006°47'510.1
2017-Oct-10 04:59N 35°19' W 006°51'510.0
2017-Oct-10 04:26N 35°15' W 006°55'410.2
2017-Oct-10 04:00N 35°11' W 006°59'510.2
2017-Oct-10 03:30N 35°07' W 007°02'510.2
2017-Oct-10 03:00N 35°02' W 007°04'610.6
2017-Oct-10 02:27N 34°57' W 007°05'510.6
2017-Oct-10 02:00N 34°52' W 007°08'52 6.3
2017-Oct-09 17:42N 34°04' W 007°32'1110.0
2017-Oct-09 16:35N 33°52' W 007°34'110.5
2017-Oct-09 16:28N 33°51' W 007°34'510.7
2017-Oct-09 16:00N 33°46' W 007°34'611.8
2017-Oct-09 15:30N 33°40' W 007°34'5 1.2
2017-Oct-09 11:38N 33°36' W 007°37'0 0.0
2017-Oct-09 11:30N 33°36' W 007°37'0 0.0
2017-Oct-09 10:57N 33°36' W 007°37'43 4.8
2017-Oct-09 02:00N 34°18' W 007°23'510.0
2017-Oct-09 01:30N 34°21' W 007°18'105 4.8
2017-Oct-08 03:45N 36°05' W 007°21'515.4
2017-Oct-08 03:26N 36°07' W 007°26'715.5
2017-Oct-08 03:00N 36°09' W 007°34'816.0
2017-Oct-08 02:30N 36°11' W 007°44'816.4
2017-Oct-08 02:00N 36°13' W 007°53'816.1
2017-Oct-08 01:30N 36°16' W 008°03'816.3
2017-Oct-08 01:01N 36°18' W 008°13'816.7
2017-Oct-08 00:30N 36°21' W 008°23'816.9
2017-Oct-08 00:00N 36°23' W 008°33'917.1
2017-Oct-07 23:31N 36°25' W 008°43'713.3
2017-Oct-07 23:00N 36°27' W 008°51'510.3
2017-Oct-07 22:30N 36°29' W 008°57'510.2
2017-Oct-07 22:00N 36°30' W 009°03'510.6
2017-Oct-07 21:30N 36°32' W 009°09'511.0
2017-Oct-07 21:00N 36°33' W 009°16'510.7
2017-Oct-07 20:30N 36°37' W 009°21'510.6
2017-Oct-07 20:00N 36°41' W 009°26'612.8
2017-Oct-07 19:31N 36°46' W 009°30'917.0
2017-Oct-07 19:01N 36°53' W 009°35'917.1
2017-Oct-07 18:31N 37°02' W 009°37'917.0
2017-Oct-07 18:00N 37°10' W 009°40'817.1
2017-Oct-07 17:30N 37°18' W 009°43'917.0
2017-Oct-07 17:00N 37°26' W 009°45'817.1
2017-Oct-07 16:31N 37°35' W 009°47'917.3
2017-Oct-07 16:01N 37°43' W 009°49'917.5
2017-Oct-07 15:30N 37°52' W 009°52'917.9
2017-Oct-07 15:01N 38°01' W 009°55'917.6
2017-Oct-07 14:31N 38°09' W 009°57'917.0
2017-Oct-07 14:00N 38°17' W 009°60'817.0
2017-Oct-07 13:31N 38°26' W 010°02'917.1
2017-Oct-07 13:01N 38°34' W 010°04'918.0
2017-Oct-07 12:30N 38°43' W 010°06'917.6
2017-Oct-07 12:01N 38°52' W 010°06'917.2
2017-Oct-07 11:30N 39°00' W 010°06'917.6
2017-Oct-07 11:01N 39°09' W 010°04'917.5
2017-Oct-07 10:30N 39°17' W 010°01'917.6
2017-Oct-07 10:00N 39°26' W 009°58'917.2
2017-Oct-07 09:30N 39°34' W 009°55'917.5
2017-Oct-07 09:00N 39°43' W 009°53'917.6
2017-Oct-07 08:30N 39°51' W 009°50'917.5
2017-Oct-07 08:01N 39°60' W 009°48'917.7
2017-Oct-07 07:31N 40°08' W 009°45'917.4
2017-Oct-07 07:01N 40°17' W 009°42'917.4
2017-Oct-07 06:30N 40°25' W 009°40'917.1
2017-Oct-07 06:00N 40°34' W 009°38'917.5
2017-Oct-07 05:31N 40°42' W 009°37'917.2
2017-Oct-07 05:01N 40°50' W 009°32'917.5
2017-Oct-07 04:30N 40°59' W 009°30'917.1
2017-Oct-07 04:00N 41°07' W 009°27'816.7
2017-Oct-07 03:30N 41°15' W 009°24'  
Track history (hours):
 
Tides and Currents Weather Stations Pressure Air Temp Water Temp Dewpoint Dewpoint Depression Visibility Wind Speed Wind Dir Waves Ship Positions

Tenerife Car

Last reported at 2017-Oct-16 22:30 UTC. Time now 2017-Oct-16 22:37 UTC.
Position N 51°24' E 003°08'.

Length 138 m; draft 5.4 m.

Type: Cargo ship. MMSI: 255805766.

Date/timePositionNaut miles runAvg speedWind from/ knotsBaromVisibWave heightAir tempDewpointWater temp
2017-Oct-16 22:30N 51°24' E 003°08'713.8
2017-Oct-16 22:00N 51°23' E 002°57'714.4
2017-Oct-16 21:30N 51°22' E 002°46'610.6
2017-Oct-16 20:59N 51°22' E 002°37'5 9.7
2017-Oct-16 20:30N 51°22' E 002°30'4 7.3
2017-Oct-16 20:01N 51°20' E 002°24'713.7
2017-Oct-16 19:31N 51°16' E 002°15'714.6
2017-Oct-16 19:01N 51°13' E 002°05'714.2
2017-Oct-16 18:31N 51°10' E 001°55'714.7
2017-Oct-16 18:01N 51°06' E 001°45'714.5
2017-Oct-16 17:31N 51°00' E 001°38'714.4
2017-Oct-16 17:00N 50°55' E 001°30'713.9
2017-Oct-16 16:30N 50°48' E 001°27'714.0
2017-Oct-16 16:00N 50°42' E 001°22'713.6
2017-Oct-16 15:30N 50°37' E 001°15'914.1
2017-Oct-16 14:54N 50°31' E 001°05'1415.4
2017-Oct-16 13:57N 50°26' E 000°44'715.4
2017-Oct-16 13:29N 50°24' E 000°33'715.2
2017-Oct-16 13:00N 50°21' E 000°22'814.9
2017-Oct-16 12:30N 50°20' E 000°11'715.0
2017-Oct-16 12:00N 50°18' W 000°01'814.9
2017-Oct-16 11:30N 50°17' W 000°13'714.7
2017-Oct-16 11:00N 50°16' W 000°24'714.5
2017-Oct-16 10:30N 50°14' W 000°35'5916.2
2017-Oct-16 06:50N 49°59' W 002°04'618.3
2017-Oct-16 06:30N 49°57' W 002°14'918.1
2017-Oct-16 06:00N 49°55' W 002°27'917.7
2017-Oct-16 05:29N 49°52' W 002°41'817.7
2017-Oct-16 05:00N 49°49' W 002°53'917.7
2017-Oct-16 04:30N 49°45' W 003°05'917.6
2017-Oct-16 04:00N 49°41' W 003°17'917.4
2017-Oct-16 03:31N 49°36' W 003°29'917.5
2017-Oct-16 03:00N 49°32' W 003°40'917.5
2017-Oct-16 02:30N 49°27' W 003°52'917.6
2017-Oct-16 02:00N 49°23' W 004°03'917.6
2017-Oct-16 01:30N 49°18' W 004°15'917.5
2017-Oct-16 01:00N 49°14' W 004°27'917.4
2017-Oct-16 00:30N 49°10' W 004°38'917.3
2017-Oct-16 00:00N 49°06' W 004°50'816.8
2017-Oct-15 23:30N 49°01' W 005°00'1016.9
2017-Oct-15 22:56N 48°56' W 005°13'816.9
2017-Oct-15 22:30N 48°52' W 005°22'1017.3
2017-Oct-15 21:57N 48°47' W 005°35'817.4
2017-Oct-15 21:28N 48°40' W 005°42'716.1
2017-Oct-15 21:00N 48°33' W 005°42'917.5
2017-Oct-15 20:30N 48°25' W 005°35'917.2
2017-Oct-15 20:00N 48°18' W 005°27'917.1
2017-Oct-15 19:31N 48°11' W 005°20'916.9
2017-Oct-15 19:00N 48°04' W 005°14'816.9
2017-Oct-15 18:30N 47°57' W 005°07'917.0
2017-Oct-15 18:00N 47°50' W 004°60'917.2
2017-Oct-15 17:31N 47°43' W 004°52'816.5
2017-Oct-15 17:00N 47°39' W 004°41'917.2
2017-Oct-15 16:30N 47°35' W 004°30'917.3
2017-Oct-15 16:00N 47°31' W 004°18'917.3
2017-Oct-15 15:30N 47°28' W 004°06'917.2
2017-Oct-15 15:00N 47°24' W 003°55'1717.5
2017-Oct-15 14:00N 47°17' W 003°32'917.3
2017-Oct-15 13:31N 47°13' W 003°20'917.2
2017-Oct-15 13:00N 47°09' W 003°09'917.3
2017-Oct-15 12:30N 47°06' W 002°57'817.1
2017-Oct-15 12:00N 47°01' W 002°46'816.0
2017-Oct-15 11:30N 47°02' W 002°34'816.4
2017-Oct-15 11:00N 47°06' W 002°24'510.7
2017-Oct-15 10:30N 47°10' W 002°18'815.3
2017-Oct-15 10:01N 47°16' W 002°11'2 3.3
2017-Oct-15 09:30N 47°17' W 002°10'0 0.0
2017-Oct-15 09:00N 47°17' W 002°10'0 0.0
2017-Oct-15 08:30N 47°17' W 002°10'0 0.0
2017-Oct-15 08:00N 47°17' W 002°10'0 0.0
2017-Oct-15 07:30N 47°17' W 002°10'0 0.0
2017-Oct-15 07:00N 47°17' W 002°10'0 0.0
2017-Oct-15 06:30N 47°17' W 002°10'0 0.0
2017-Oct-15 06:00N 47°17' W 002°10'0 0.0
2017-Oct-15 05:30N 47°17' W 002°10'0 0.0
2017-Oct-15 05:00N 47°17' W 002°10'0 0.0
2017-Oct-15 04:30N 47°17' W 002°10'0 0.0
2017-Oct-15 04:00N 47°17' W 002°10'0 0.0
2017-Oct-15 03:30N 47°17' W 002°10'0 0.0
2017-Oct-15 03:00N 47°17' W 002°10'0 0.0
2017-Oct-15 02:30N 47°17' W 002°10'0 0.0
2017-Oct-15 02:00N 47°17' W 002°10'0 0.1
2017-Oct-15 01:30N 47°17' W 002°10'4 7.8
2017-Oct-15 01:00N 47°15' W 002°14'715.0
2017-Oct-15 00:30N 47°08' W 002°20'611.5
2017-Oct-15 00:00N 47°05' W 002°26'816.0
2017-Oct-14 23:30N 47°01' W 002°37'713.0
2017-Oct-14 23:00N 46°57' W 002°45'610.8
2017-Oct-14 22:30N 46°54' W 002°51'510.9
2017-Oct-14 22:00N 46°52' W 002°59'510.5
2017-Oct-14 21:30N 46°49' W 003°05'510.9
2017-Oct-14 21:00N 46°45' W 003°10'510.5
2017-Oct-14 20:29N 46°41' W 003°16'510.4
2017-Oct-14 19:59N 46°38' W 003°23'610.6
2017-Oct-14 19:25N 46°35' W 003°29'610.8
2017-Oct-14 18:53N 46°31' W 003°36'710.9
2017-Oct-14 18:12N 46°27' W 003°45'510.7
2017-Oct-14 17:44N 46°24' W 003°51'410.5
2017-Oct-14 17:23N 46°22' W 003°55'510.5
2017-Oct-14 16:56N 46°19' W 004°01'2610.2
2017-Oct-14 14:21N 46°03' W 004°31'810.2
2017-Oct-14 13:32N 45°58' W 004°41'010.0
2017-Oct-14 13:30N 45°58' W 004°41'27214.3
2017-Oct-13 18:25N 43°13' W 009°46'616.1
2017-Oct-13 18:00N 43°07' W 009°48'816.4
2017-Oct-13 17:30N 42°59' W 009°47'816.4
2017-Oct-13 17:01N 42°51' W 009°47'83 5.4
2017-Oct-13 01:38N 41°32' W 009°11'617.3
2017-Oct-13 01:16N 41°26' W 009°12'11617.5
2017-Oct-12 18:38N 39°32' W 009°45'317.9
2017-Oct-12 18:27N 39°29' W 009°46'817.6
2017-Oct-12 18:00N 39°21' W 009°47'917.4
2017-Oct-12 17:31N 39°13' W 009°48'917.3
2017-Oct-12 17:00N 39°04' W 009°49'917.7
2017-Oct-12 16:31N 38°55' W 009°51'917.9
2017-Oct-12 16:00N 38°46' W 009°51'917.5
2017-Oct-12 15:30N 38°38' W 009°49'917.6
2017-Oct-12 15:00N 38°29' W 009°47'1017.7
2017-Oct-12 14:26N 38°19' W 009°44'817.7
2017-Oct-12 14:00N 38°12' W 009°41'1117.9
2017-Oct-12 13:24N 38°01' W 009°38'818.1
2017-Oct-12 12:59N 37°54' W 009°36'1817.6
2017-Oct-12 11:56N 37°36' W 009°33'2317.5
2017-Oct-12 10:37N 37°14' W 009°25'517.7
2017-Oct-12 10:19N 37°08' W 009°23'1717.2
2017-Oct-12 09:21N 36°52' W 009°18'616.9
2017-Oct-12 09:00N 36°48' W 009°14'917.5
2017-Oct-12 08:30N 36°44' W 009°04'918.0
2017-Oct-12 08:00N 36°41' W 008°53'1617.9
2017-Oct-12 07:05N 36°35' W 008°34'617.8
2017-Oct-12 06:46N 36°33' W 008°27'617.7
2017-Oct-12 06:26N 36°31' W 008°21'717.3
2017-Oct-12 06:01N 36°29' W 008°12'917.7
2017-Oct-12 05:30N 36°26' W 008°02'917.7
2017-Oct-12 05:00N 36°22' W 007°51'917.5
2017-Oct-12 04:30N 36°20' W 007°41'1117.6
2017-Oct-12 03:53N 36°17' W 007°28'5617.8
2017-Oct-12 00:46N 35°59' W 006°23'1116.8
2017-Oct-12 00:05N 35°57' W 006°08'216.4
2017-Oct-11 23:57N 35°58' W 006°06'917.2
2017-Oct-11 23:27N 35°58' W 005°55'817.2
2017-Oct-11 23:01N 35°58' W 005°46'816.3
2017-Oct-11 22:31N 35°58' W 005°36'611.3
2017-Oct-11 21:56N 35°54' W 005°30'0 0.0
2017-Oct-10 23:59N 35°53' W 005°30'0 0.7
2017-Oct-10 23:27N 35°54' W 005°30'3212.4
2017-Oct-10 20:55N 35°49' W 006°08'410.6
2017-Oct-10 20:30N 35°48' W 006°14'510.3
2017-Oct-10 20:00N 35°46' W 006°19'5 9.9
2017-Oct-10 19:29N 35°44' W 006°25'5 9.5
2017-Oct-10 19:00N 35°43' W 006°31'5 9.0
2017-Oct-10 18:29N 35°41' W 006°36'5 9.9
2017-Oct-10 18:00N 35°39' W 006°41'510.6
2017-Oct-10 17:30N 35°36' W 006°47'4 6.7
2017-Oct-10 16:54N 35°33' W 006°51'1 1.0
2017-Oct-10 15:54N 35°33' W 006°49'0 1.0
2017-Oct-10 15:30N 35°33' W 006°49'1 1.2
2017-Oct-10 14:57N 35°33' W 006°48'2 1.5
2017-Oct-10 13:48N 35°33' W 006°46'0 1.7
2017-Oct-10 13:30N 35°33' W 006°46'3 1.1
2017-Oct-10 10:48N 35°33' W 006°42'0 0.5
2017-Oct-10 10:24N 35°33' W 006°42'0 0.7
2017-Oct-10 09:54N 35°32' W 006°41'0 0.9
2017-Oct-10 09:27N 35°32' W 006°41'0 1.0
2017-Oct-10 09:00N 35°32' W 006°40'1 1.0
2017-Oct-10 07:42N 35°31' W 006°39'1 1.3
2017-Oct-10 07:12N 35°31' W 006°38'0 1.3
2017-Oct-10 07:00N 35°31' W 006°38'1 1.2
2017-Oct-10 06:30N 35°30' W 006°38'510.0
2017-Oct-10 06:00N 35°27' W 006°43'510.3
2017-Oct-10 05:30N 35°23' W 006°47'510.1
2017-Oct-10 04:59N 35°19' W 006°51'510.0
2017-Oct-10 04:26N 35°15' W 006°55'410.2
2017-Oct-10 04:00N 35°11' W 006°59'510.2
2017-Oct-10 03:30N 35°07' W 007°02'510.2
2017-Oct-10 03:00N 35°02' W 007°04'610.6
2017-Oct-10 02:27N 34°57' W 007°05'510.6
2017-Oct-10 02:00N 34°52' W 007°08'52 6.3
2017-Oct-09 17:42N 34°04' W 007°32'1110.0
2017-Oct-09 16:35N 33°52' W 007°34'110.5
2017-Oct-09 16:28N 33°51' W 007°34'510.7
2017-Oct-09 16:00N 33°46' W 007°34'611.8
2017-Oct-09 15:30N 33°40' W 007°34'5 1.2
2017-Oct-09 11:38N 33°36' W 007°37'0 0.0
2017-Oct-09 11:30N 33°36' W 007°37'0 0.0
2017-Oct-09 10:57N 33°36' W 007°37'43 4.8
2017-Oct-09 02:00N 34°18' W 007°23'510.0
2017-Oct-09 01:30N 34°21' W 007°18'105 4.8
2017-Oct-08 03:45N 36°05' W 007°21'515.4
2017-Oct-08 03:26N 36°07' W 007°26'715.5
2017-Oct-08 03:00N 36°09' W 007°34'816.0
2017-Oct-08 02:30N 36°11' W 007°44'816.4
2017-Oct-08 02:00N 36°13' W 007°53'816.1
2017-Oct-08 01:30N 36°16' W 008°03'816.3
2017-Oct-08 01:01N 36°18' W 008°13'816.7
2017-Oct-08 00:30N 36°21' W 008°23'816.9
2017-Oct-08 00:00N 36°23' W 008°33'917.1
2017-Oct-07 23:31N 36°25' W 008°43'713.3
2017-Oct-07 23:00N 36°27' W 008°51'510.3
2017-Oct-07 22:30N 36°29' W 008°57'510.2
2017-Oct-07 22:00N 36°30' W 009°03'510.6
2017-Oct-07 21:30N 36°32' W 009°09'511.0
2017-Oct-07 21:00N 36°33' W 009°16'510.7
2017-Oct-07 20:30N 36°37' W 009°21'510.6
2017-Oct-07 20:00N 36°41' W 009°26'612.8
2017-Oct-07 19:31N 36°46' W 009°30'917.0
2017-Oct-07 19:01N 36°53' W 009°35'917.1
2017-Oct-07 18:31N 37°02' W 009°37'917.0
2017-Oct-07 18:00N 37°10' W 009°40'817.1
2017-Oct-07 17:30N 37°18' W 009°43'917.0
2017-Oct-07 17:00N 37°26' W 009°45'817.1
2017-Oct-07 16:31N 37°35' W 009°47'917.3
2017-Oct-07 16:01N 37°43' W 009°49'917.5
2017-Oct-07 15:30N 37°52' W 009°52'917.9
2017-Oct-07 15:01N 38°01' W 009°55'917.6
2017-Oct-07 14:31N 38°09' W 009°57'917.0
2017-Oct-07 14:00N 38°17' W 009°60'817.0
2017-Oct-07 13:31N 38°26' W 010°02'917.1
2017-Oct-07 13:01N 38°34' W 010°04'918.0
2017-Oct-07 12:30N 38°43' W 010°06'917.6
2017-Oct-07 12:01N 38°52' W 010°06'917.2
2017-Oct-07 11:30N 39°00' W 010°06'917.6
2017-Oct-07 11:01N 39°09' W 010°04'917.5
2017-Oct-07 10:30N 39°17' W 010°01'917.6
2017-Oct-07 10:00N 39°26' W 009°58'917.2
2017-Oct-07 09:30N 39°34' W 009°55'917.5
2017-Oct-07 09:00N 39°43' W 009°53'917.6
2017-Oct-07 08:30N 39°51' W 009°50'917.5
2017-Oct-07 08:01N 39°60' W 009°48'917.7
2017-Oct-07 07:31N 40°08' W 009°45'917.4
2017-Oct-07 07:01N 40°17' W 009°42'917.4
2017-Oct-07 06:30N 40°25' W 009°40'917.1
2017-Oct-07 06:00N 40°34' W 009°38'917.5
2017-Oct-07 05:31N 40°42' W 009°37'917.2
2017-Oct-07 05:01N 40°50' W 009°32'917.5
2017-Oct-07 04:30N 40°59' W 009°30'917.1
2017-Oct-07 04:00N 41°07' W 009°27'816.7
2017-Oct-07 03:30N 41°15' W 009°24'  

Dump ship's entire track history